モントリオール/トルドー の空港の天気 - METARとTAF

モントリオール・ピエール・エリオット・トルドー国際空港 ( CYUL / YUL ) - カナダ ケベック州モントリオール
飛行場実況気象(Metar)
観測時間01/19 20:00 EST (01/20 01:00 UTC)
風向・風速西 2m/s
視程10km以上
天気現象
少しの雲 雲底高度 610m
全天を覆う雲 雲底高度 1010m
気温1℃
湿度93%
気圧1017.8hPa
METARCYUL 200100Z 27004KT 15SM FEW020 OVC033 01/M00 A3005 RMK CF1SC8 CF TR SLP178
過去の天気等 Google飛行場航空写真 Wunderground天気予報

過去48時間のMETAR

飛行場予報(TAF)
発表時間: 1/19 18:40 EST (1/19 23:40 UTC)
予報対象時間: 19日19時 EST ~ 20日19時 EST
風向・風速北西 3m/s
視程10km以上
全天を覆う雲 雲底高度 910m
19日19時 EST ~ 20日4時 EST に一時的に
全天を覆う雲 雲底高度 610m
20日4時 EST から
風向・風速西南西 2m/s
視程10km以上
全天を覆う雲 雲底高度 760m
20日4時 EST ~ 20日13時 EST に一時的に
視程8,050m
天気現象もや
少しの雲 雲底高度 180m
全天を覆う雲 雲底高度 610m
20日5時 EST から 確率 30% で
視程3,220m
天気現象もや
全天の4割程度の雲 雲底高度 90m
20日13時 EST から
風向・風速北東 4m/s
視程10km以上
天気現象もや
少しの雲 雲底高度 150m
全天の8割程度の雲 雲底高度 610m
TAF CYUL 192340Z 2000/2024 31005KT P6SM OVC030
TEMPO 2000/2009 OVC020
FM200900 24003KT P6SM OVC025
TEMPO 2009/2018 5SM BR FEW006 OVC020
PROB30 2010/2016 2SM BR SCT003
FM201800 05007KT 6SM BR FEW005 BKN020 RMK NXT FCST BY 200300Z